• Join FlightAware (Why Join?)
  • Login
  • US Flag 
12:07PM EDT


 

Airport Tracker/Info


-or-


 

Live Flight TrackerFlight Track Log ✈ VH-OGS ✈ 17-May-2012 ✈ YSSY / SYD - YPAD / ADL

Flight Track Log - Related Links

Times and Time Zones

All times are in EDT time to prevent confusion due to time zone crossing. See the VH-OGS flight status page for this flight to view local times or setup timezone preferences in your user account.

Time Position Orientation Groundspeed Altitude Reporting Facility
EDT Latitude Longitude Course Direction KTS MPH feet Rate Location/Type
08:09PM -33.9873 151.2148 134° Southeast 170 196 2,100  Level Aus ATC (RADAR)
08:10PM -34.0306 151.2685 141° Southeast 247 284 4,900 1,800 Climbing Aus ATC (RADAR)
08:11PM -34.0707 151.3070 141° Southeast 272 313 5,100 1,740 Climbing Aus ATC (RADAR)
08:11PM -34.1056 151.3410 150° Southeast 280 322 7,100 3,900 Climbing Aus ATC (RADAR)
08:12PM -34.1556 151.3757 223° Southwest 289 333 10,300 4,020 Climbing Aus ATC (RADAR)
08:13PM -34.2125 151.3114 297° West 276 318 14,500 3,120 Climbing Aus ATC (RADAR)
08:14PM -34.1703 151.2118 302° West 341 392 16,900 2,880 Climbing Aus ATC (RADAR)
08:15PM -34.1145 151.1033 301° West 371 427 20,300 3,360 Climbing Aus ATC (RADAR)
08:16PM -34.0772 151.0276 301° West 380 437 22,500 3,240 Climbing Aus ATC (RADAR)
08:16PM -34.0435 150.9595 301° West 390 449 24,400 3,000 Climbing Aus ATC (RADAR)
08:17PM -33.9938 150.8599 301° West 403 464 26,800 2,160 Climbing Aus ATC (RADAR)
08:18PM -33.9313 150.7356 301° West 426 490 28,400 2,400 Climbing Aus ATC (RADAR)
08:19PM -33.8633 150.6011 301° West 422 486 31,800 3,120 Climbing Aus ATC (RADAR)
08:20PM -33.8064 150.4884 301° West 416 479 34,700 2,640 Climbing Aus ATC (RADAR)
08:21PM -33.7551 150.3870 299° West 415 478 36,500 2,400 Climbing Aus ATC (RADAR)
08:22PM -33.7217 150.3148 272° West 413 475 38,100 1,260 Climbing Aus ATC (RADAR)
08:23PM -33.7185 150.2057 264° West 393 452 38,300 60 Climbing Aus ATC (RADAR)
08:24PM -33.7304 150.0728 264° West 394 453 38,300  Level Aus ATC (RADAR)
08:25PM -33.7446 149.9153 264° West 402 463 38,300  Level Aus ATC (RADAR)
08:26PM -33.7543 149.8010 264° West 404 465 38,300  Level Aus ATC (RADAR)
08:26PM -33.7643 149.6870 264° West 403 464 38,300  Level Aus ATC (RADAR)
08:27PM -33.7707 149.6093 264° West 394 453 38,300  Level Aus ATC (RADAR)
08:28PM -33.7800 149.4983 264° West 392 451 38,300  Level Aus ATC (RADAR)
08:29PM -33.7910 149.3643 264° West 395 455 38,300  Level Aus ATC (RADAR)
08:30PM -33.8028 149.2172 264° West 401 461 38,300  Level Aus ATC (RADAR)
08:31PM -33.8121 149.1031 265° West 404 465 38,300  Level Aus ATC (RADAR)
08:32PM -33.8211 148.9885 264° West 406 467 38,300  Level Aus ATC (RADAR)
08:32PM -33.8276 148.9081 265° West 406 467 38,300  Level Aus ATC (RADAR)
08:33PM -33.8355 148.8046 265° West 407 468 38,300  Level Aus ATC (RADAR)
08:33PM -33.8409 148.7355 264° West 408 470 38,300  Level Aus ATC (RADAR)
08:34PM -33.8478 148.6553 259° West 406 467 38,300  Level Aus ATC (RADAR)
08:35PM -33.8727 148.4961 259° West 408 470 38,300  Level Aus ATC (RADAR)
08:36PM -33.8839 148.4280 259° West 409 471 38,300  Level Aus ATC (RADAR)
08:36PM -33.8970 148.3486 259° West 409 471 38,300  Level Aus ATC (RADAR)
08:37PM -33.9102 148.2691 259° West 409 471 38,300  Level Aus ATC (RADAR)
08:37PM -33.9228 148.1895 259° West 409 471 38,300  Level Aus ATC (RADAR)
08:38PM -33.9418 148.0757 259° West 410 472 38,300  Level Aus ATC (RADAR)
08:39PM -33.9620 147.9502 259° West 410 472 38,300  Level Aus ATC (RADAR)
08:41PM -33.9930 147.7554 259° West 412 474 38,300  Level Aus ATC (RADAR)
08:41PM -34.0131 147.6290 259° West 412 474 38,300  Level Aus ATC (RADAR)
08:42PM -34.0296 147.5252 259° West 415 478 38,300  Level Aus ATC (RADAR)
08:43PM -34.0423 147.4439 259° West 417 480 38,300  Level Aus ATC (RADAR)
08:44PM -34.0603 147.3279 259° West 416 479 38,300  Level Aus ATC (RADAR)
08:45PM -34.1000 147.0712 259° West 418 481 38,300  Level Aus ATC (RADAR)
08:46PM -34.1214 146.9312 260° West 417 480 38,300  Level Aus ATC (RADAR)
08:47PM -34.1356 146.8376 260° West 421 484 38,300  Level Aus ATC (RADAR)
08:48PM -34.1493 146.7441 259° West 417 480 38,300  Level Aus ATC (RADAR)
08:49PM -34.1676 146.6269 260° West 419 482 38,300  Level Aus ATC (RADAR)
08:50PM -34.1949 146.4391 260° West 421 484 38,300  Level Aus ATC (RADAR)
08:51PM -34.2124 146.3215 260° West 421 484 38,300  Level Aus ATC (RADAR)
08:51PM -34.2259 146.2272 260° West 425 489 38,300  Level Aus ATC (RADAR)
08:52PM -34.2381 146.1448 260° West 423 487 38,300  Level Aus ATC (RADAR)
08:53PM -34.2500 146.0620 261° West 424 488 38,300  Level Aus ATC (RADAR)
08:53PM -34.2647 145.9432 261° West 426 490 38,300  Level Aus ATC (RADAR)
08:54PM -34.2825 145.8006 262° West 426 490 38,300  Level Aus ATC (RADAR)
08:56PM -34.3044 145.6215 262° West 426 490 38,300  Level Aus ATC (RADAR)
08:57PM -34.3218 145.4790 262° West 421 484 38,300  Level Aus ATC (RADAR)
08:57PM -34.3329 145.3825 262° West 431 496 38,300  Level Aus ATC (RADAR)
08:58PM -34.3428 145.2995 262° West 424 488 38,300 60 Level Aus ATC (RADAR)
08:59PM -34.3572 145.1804 262° West 424 488 38,400  Climbing Aus ATC (RADAR)
09:00PM -34.3819 144.9658 262° West 425 489 38,300 -60 Descending Aus ATC (RADAR)
09:01PM -34.3902 144.8948 262° West 424 488 38,300  Level Aus ATC (RADAR)
09:02PM -34.4063 144.7522 262° West 425 489 38,300  Level Aus ATC (RADAR)
09:03PM -34.4197 144.6334 262° West 425 489 38,300  Level Aus ATC (RADAR)
09:03PM -34.4292 144.5498 262° West 425 489 38,300  Level Aus ATC (RADAR)
09:04PM -34.4424 144.4306 262° West 426 490 38,300  Level Aus ATC (RADAR)
09:05PM -34.4622 144.2514 262° West 429 494 38,300  Level Aus ATC (RADAR)
09:06PM -34.4700 144.1797 262° West 429 494 38,300  Level Aus ATC (RADAR)
09:07PM -34.4855 144.0367 263° West 428 493 38,300  Level Aus ATC (RADAR)
09:07PM -34.4945 143.9525 263° West 430 495 38,300  Level Aus ATC (RADAR)
09:08PM -34.5042 143.8589 262° West 419 482 38,300  Level Aus ATC (RADAR)
09:09PM -34.5176 143.7376 263° West 435 501 38,300  Level Aus ATC (RADAR)
09:10PM -34.5292 143.6219 263° West 419 482 38,300  Level Aus ATC (RADAR)
09:11PM -34.5466 143.4562 263° West 422 486 38,300  Level Aus ATC (RADAR)
09:12PM -34.5609 143.3148 263° West 420 483 38,300  Level Aus ATC (RADAR)
09:12PM -34.5703 143.2208 263° West 420 483 38,300  Level Aus ATC (RADAR)
09:13PM -34.5788 143.1384 263° West 420 483 38,300  Level Aus ATC (RADAR)
09:14PM -34.5907 143.0210 263° West 418 481 38,300  Level Aus ATC (RADAR)
09:15PM -34.6111 142.8091 263° West 421 484 38,300  Level Aus ATC (RADAR)
09:16PM -34.6181 142.7387 263° West 420 483 38,300  Level Aus ATC (RADAR)
09:17PM -34.6294 142.6214 264° West 418 481 38,300  Level Aus ATC (RADAR)
09:18PM -34.6395 142.5037 267° West 421 484 38,300  Level Aus ATC (RADAR)
09:18PM -34.6440 142.4096 266° West 418 481 38,300  Level Aus ATC (RADAR)
09:19PM -34.6500 142.2917 266° West 419 482 38,300  Level Aus ATC (RADAR)
09:21PM -34.6634 142.0557 266° West 420 483 38,300  Level Aus ATC (RADAR)
09:22PM -34.6698 141.9378 266° West 421 484 38,300  Level Aus ATC (RADAR)
09:22PM -34.6745 141.8538 267° West 421 484 38,300  Level Aus ATC (RADAR)
09:23PM -34.6801 141.7371 266° West 420 483 38,300  Level Aus ATC (RADAR)
09:24PM -34.6844 141.6530 267° West 421 484 38,300  Level Aus ATC (RADAR)
09:24PM -34.6902 141.5361 266° West 421 484 38,300  Level Aus ATC (RADAR)
09:26PM -34.7014 141.3105 267° West 423 487 38,300  Level Aus ATC (RADAR)
09:27PM -34.7084 141.1657 267° West 423 487 38,300  Level Aus ATC (RADAR)
09:28PM -34.7127 141.0701 267° West 425 489 38,300  Level Aus ATC (RADAR)
09:28PM -34.7166 140.9889 267° West 424 488 38,300  Level Aus ATC (RADAR)
09:29PM -34.7218 140.8694 267° West 425 489 38,300  Level Aus ATC (RADAR)
09:30PM -34.7279 140.7246 267° West 427 491 38,300  Level Aus ATC (RADAR)
09:31PM -34.7354 140.5455 267° West 425 489 38,300 -120 Level Aus ATC (RADAR)
09:32PM -34.7403 140.4277 267° West 425 489 38,100 -1,560 Descending Aus ATC (RADAR)
09:33PM -34.7452 140.3091 268° West 418 481 35,700 -3,180 Descending Aus ATC (RADAR)
09:34PM -34.7477 140.2263 268° West 424 488 33,600 -3,060 Descending Aus ATC (RADAR)
09:34PM -34.7518 140.1088 267° West 420 483 31,400 -2,580 Descending Aus ATC (RADAR)
09:36PM -34.7598 139.9068 268° West 399 459 27,700 -2,460 Descending Aus ATC (RADAR)
09:36PM -34.7622 139.8392 268° West 392 451 26,500 -2,580 Descending Aus ATC (RADAR)
09:37PM -34.7667 139.7096 267° West 385 443 23,900 -2,280 Descending Aus ATC (RADAR)
09:38PM -34.7707 139.5965 268° West 371 427 22,200 -2,040 Descending Aus ATC (RADAR)
09:39PM -34.7731 139.5251 267° West 359 413 20,900 -2,340 Descending Aus ATC (RADAR)
09:40PM -34.7767 139.4262 247° West 353 406 19,000 -1,680 Descending Aus ATC (RADAR)
09:41PM -34.8368 139.2548 245° Southwest 307 353 16,600 -1,620 Descending Aus ATC (RADAR)
09:42PM -34.8743 139.1561 245° Southwest 299 344 14,500 -1,860 Descending Aus ATC (RADAR)
09:43PM -34.8943 139.1032 246° West 297 342 13,500 -1,680 Descending Aus ATC (RADAR)
09:44PM -34.9136 139.0508 245° Southwest 292 336 12,600 -1,860 Descending Aus ATC (RADAR)
09:44PM -34.9417 138.9763 245° Southwest 294 338 10,900 -1,620 Descending Aus ATC (RADAR)
09:46PM -34.9882 138.8528 245° Southwest 282 325 9,000 -1,020 Descending Aus ATC (RADAR)
09:46PM -35.0046 138.8090 245° Southwest 284 327 9,000  Level Aus ATC (RADAR)
09:47PM -35.0394 138.7155 245° Southwest 280 322 9,000 -660 Level Aus ATC (RADAR)
09:48PM -35.0609 138.6586 245° Southwest 277 319 7,900 -2,100 Descending Aus ATC (RADAR)
09:49PM -35.0795 138.6086 246° West 278 320 6,400 -2,520 Descending Aus ATC (RADAR)
09:49PM -35.1020 138.5471 262° West 264 304 4,600 -1,320 Descending Aus ATC (RADAR)
09:51PM -35.1157 138.4332 17° North 169 194 2,900 -1,020 Descending Aus ATC (RADAR)
09:52PM -35.0936 138.4415 15° North 165 190 2,200 -780 Descending Aus ATC (RADAR)
09:53PM -35.0522 138.4552 16° North 155 178 1,800 -480 Descending Aus ATC (RADAR)
09:54PM -35.0231 138.4656 15° North 126 145 1,400 -540 Descending Aus ATC (RADAR)
09:54PM -35.0037 138.4722 25° Northeast 127 146 1,100 -540 Descending Aus ATC (RADAR)
09:55PM -34.9805 138.4856 25° Northeast 126 145 700 -540 Descending Aus ATC (RADAR)